Portada
METAR-TAF:

METAR-TAF

Aeroports :

Udon Thani, Tailàndia

latitud: 17-23N, longitud: 102-48E, altitud: 177 m

Observació

L'informe es va fer fa 1 hora i 18 minuts, a les 15:00 UTC
Vent 5 kt del Est/Sud-Est
Temperatura 25°C
Humitat 57%
Pressió 1014 hPa
Visibilitat: 8000 m

METAR: VTUD 171500Z 12005KT 8000 NSC 25/16 Q1014 NOSIG

Hora: 23:18 (16:18 UTC)

Pronòstic

L'informe es va fer fa 5 hores i 18 minuts, a les 11:00 UTC
Pronòstic vàlid del 17 a les 12 UTC al 18 a les 12 UTC
Vent 4 kt del Est/Sud-Est
Visibilitat: 8000 m
Evolucionant progressivament
l' 17 a les 21 UTC al 17 a les 23 UTC
Visibilitat: 4000 m
boirina
Evolucionant progressivament
l' 18 a les 02 UTC al 18 a les 04 UTC
Visibilitat: 9000 m

TAF: VTUD 171100Z 1712/1812 12004KT 8000 NSC BECMG 1721/1723 4000 BR BECMG 1802/1804 9000 NSW

Observacions i pronòstics meteorològics de més de 4000 aeroports (METAR i TAF).

Les estacions disponibles són els punts grocs i vermells al mapa.

Posi el ratolí al punt desitjat per veure el nom de l'estació.

Feu clic per veure les observacions i els pronòstics meteorològics.

Per canviar el mapa: feu clic els botons verds amb una creu de color negre per apropar; al botó verd amb un guió per allunyar la imatge; o en les fletxes verdes per a mapes adjacents.


METAR-TAF: